Suburban Heights, Illinois
Current Conditions -  °F | °C
As of 7:15 AM on Wednesday 22 Oct 2014 (Local Time) from KENL Reporting Station
Haze Haze  
Wind Chill: 38°   Ceiling: 700
Heat Index: 38°   Visibility: 1.5mi
Dew Point: 36°   Wind: 3mph
Humidity: 94%   Direction: 80°E
Pressure: 30.29"   Gusts: NA
Location:  38.5134°N, 89.1673°W
Report Text: KENL 221215Z AUTO 08003KT 1 1/2SM BR VV007 03/02 A3029 RMK AO2 T00320023
Loading
Personal Weather Stations






























Interactive Weather Map
Tropical Storm Tracking
New forecast layout! Learn more

10-Day Weather Forecast

Advertisements
Track Severe Weather on mobile